sensor_id;sensor_type;location;lat;lon;timestamp;temperature;humidity
74617;DHT22;63123;50.906;4.198;2023-06-24T00:01:26;20.90;72.10
74617;DHT22;63123;50.906;4.198;2023-06-24T00:03:52;20.90;72.10
74617;DHT22;63123;50.906;4.198;2023-06-24T00:06:21;20.90;72.10
74617;DHT22;63123;50.906;4.198;2023-06-24T00:08:48;20.90;72.10
74617;DHT22;63123;50.906;4.198;2023-06-24T00:11:15;20.90;72.00
74617;DHT22;63123;50.906;4.198;2023-06-24T00:13:42;20.90;72.10
74617;DHT22;63123;50.906;4.198;2023-06-24T00:16:08;20.90;72.10
74617;DHT22;63123;50.906;4.198;2023-06-24T00:18:34;20.90;72.00
74617;DHT22;63123;50.906;4.198;2023-06-24T00:21:00;20.90;72.00
74617;DHT22;63123;50.906;4.198;2023-06-24T00:23:27;20.90;72.00
74617;DHT22;63123;50.906;4.198;2023-06-24T00:25:54;20.90;71.90
74617;DHT22;63123;50.906;4.198;2023-06-24T00:28:21;20.90;71.90
74617;DHT22;63123;50.906;4.198;2023-06-24T00:30:47;20.90;71.90
74617;DHT22;63123;50.906;4.198;2023-06-24T00:33:13;20.90;71.90
74617;DHT22;63123;50.906;4.198;2023-06-24T00:35:40;20.90;71.90
74617;DHT22;63123;50.906;4.198;2023-06-24T00:38:05;20.90;71.90
74617;DHT22;63123;50.906;4.198;2023-06-24T00:40:31;20.90;71.90
74617;DHT22;63123;50.906;4.198;2023-06-24T00:42:58;20.80;71.80
74617;DHT22;63123;50.906;4.198;2023-06-24T00:45:24;20.90;71.80
74617;DHT22;63123;50.906;4.198;2023-06-24T00:47:50;20.90;71.70
74617;DHT22;63123;50.906;4.198;2023-06-24T00:50:17;20.90;71.80
74617;DHT22;63123;50.906;4.198;2023-06-24T00:52:43;20.90;71.80
74617;DHT22;63123;50.906;4.198;2023-06-24T00:55:13;20.80;71.70
74617;DHT22;63123;50.906;4.198;2023-06-24T00:57:44;20.80;71.70
74617;DHT22;63123;50.906;4.198;2023-06-24T01:00:10;20.90;71.70
74617;DHT22;63123;50.906;4.198;2023-06-24T01:02:40;20.80;71.60
74617;DHT22;63123;50.906;4.198;2023-06-24T01:05:08;20.90;71.60
74617;DHT22;63123;50.906;4.198;2023-06-24T01:07:35;20.90;71.60
74617;DHT22;63123;50.906;4.198;2023-06-24T01:10:03;20.90;71.60
74617;DHT22;63123;50.906;4.198;2023-06-24T01:12:32;20.90;71.50
74617;DHT22;63123;50.906;4.198;2023-06-24T01:14:58;20.90;71.50
74617;DHT22;63123;50.906;4.198;2023-06-24T01:17:29;20.80;71.60
74617;DHT22;63123;50.906;4.198;2023-06-24T01:22:59;20.90;71.50
74617;DHT22;63123;50.906;4.198;2023-06-24T01:36:40;20.90;71.30
74617;DHT22;63123;50.906;4.198;2023-06-24T01:39:09;20.90;71.20
74617;DHT22;63123;50.906;4.198;2023-06-24T01:41:42;20.80;71.10
74617;DHT22;63123;50.906;4.198;2023-06-24T01:44:13;20.90;71.20
74617;DHT22;63123;50.906;4.198;2023-06-24T01:46:40;20.90;71.20
74617;DHT22;63123;50.906;4.198;2023-06-24T01:49:08;20.80;71.00
74617;DHT22;63123;50.906;4.198;2023-06-24T01:51:37;20.90;71.20
74617;DHT22;63123;50.906;4.198;2023-06-24T01:54:06;20.80;71.00
74617;DHT22;63123;50.906;4.198;2023-06-24T01:56:34;20.80;71.00
74617;DHT22;63123;50.906;4.198;2023-06-24T01:59:02;20.80;70.90
74617;DHT22;63123;50.906;4.198;2023-06-24T02:01:32;20.90;70.90
74617;DHT22;63123;50.906;4.198;2023-06-24T02:04:00;20.80;70.90
74617;DHT22;63123;50.906;4.198;2023-06-24T02:06:28;20.80;71.00
74617;DHT22;63123;50.906;4.198;2023-06-24T02:08:56;20.90;71.00
74617;DHT22;63123;50.906;4.198;2023-06-24T02:11:24;20.90;71.10
74617;DHT22;63123;50.906;4.198;2023-06-24T02:13:53;20.90;71.00
74617;DHT22;63123;50.906;4.198;2023-06-24T02:16:21;20.80;71.10
74617;DHT22;63123;50.906;4.198;2023-06-24T02:18:47;20.90;71.60
74617;DHT22;63123;50.906;4.198;2023-06-24T02:21:16;20.80;70.90
74617;DHT22;63123;50.906;4.198;2023-06-24T02:23:43;20.80;70.80
74617;DHT22;63123;50.906;4.198;2023-06-24T02:26:10;20.80;70.80
74617;DHT22;63123;50.906;4.198;2023-06-24T02:28:37;20.80;70.70
74617;DHT22;63123;50.906;4.198;2023-06-24T02:31:04;20.80;70.80
74617;DHT22;63123;50.906;4.198;2023-06-24T02:33:31;20.80;70.80
74617;DHT22;63123;50.906;4.198;2023-06-24T02:35:57;20.80;70.70
74617;DHT22;63123;50.906;4.198;2023-06-24T02:38:23;20.80;70.80
74617;DHT22;63123;50.906;4.198;2023-06-24T02:40:49;20.80;70.70
74617;DHT22;63123;50.906;4.198;2023-06-24T02:43:17;20.80;70.80
74617;DHT22;63123;50.906;4.198;2023-06-24T02:45:44;20.80;70.70
74617;DHT22;63123;50.906;4.198;2023-06-24T02:48:10;20.90;70.80
74617;DHT22;63123;50.906;4.198;2023-06-24T02:50:37;20.80;70.70
74617;DHT22;63123;50.906;4.198;2023-06-24T02:53:04;20.80;70.80
74617;DHT22;63123;50.906;4.198;2023-06-24T02:55:31;20.90;70.70
74617;DHT22;63123;50.906;4.198;2023-06-24T02:57:57;20.80;70.70
74617;DHT22;63123;50.906;4.198;2023-06-24T03:00:23;20.80;70.50
74617;DHT22;63123;50.906;4.198;2023-06-24T03:02:50;20.80;70.50
74617;DHT22;63123;50.906;4.198;2023-06-24T03:05:16;20.80;70.50
74617;DHT22;63123;50.906;4.198;2023-06-24T03:07:44;20.80;70.80
74617;DHT22;63123;50.906;4.198;2023-06-24T03:10:10;20.80;70.60
74617;DHT22;63123;50.906;4.198;2023-06-24T03:12:36;20.80;70.60
74617;DHT22;63123;50.906;4.198;2023-06-24T03:15:02;20.80;70.50
74617;DHT22;63123;50.906;4.198;2023-06-24T03:17:28;20.80;70.40
74617;DHT22;63123;50.906;4.198;2023-06-24T03:19:53;20.80;70.50
74617;DHT22;63123;50.906;4.198;2023-06-24T03:22:19;20.80;70.40
74617;DHT22;63123;50.906;4.198;2023-06-24T03:24:45;20.90;70.40
74617;DHT22;63123;50.906;4.198;2023-06-24T03:27:10;20.80;70.40
74617;DHT22;63123;50.906;4.198;2023-06-24T03:29:36;20.80;70.40
74617;DHT22;63123;50.906;4.198;2023-06-24T03:32:02;20.80;70.30
74617;DHT22;63123;50.906;4.198;2023-06-24T03:34:27;20.80;70.30
74617;DHT22;63123;50.906;4.198;2023-06-24T03:36:54;20.80;70.30
74617;DHT22;63123;50.906;4.198;2023-06-24T03:39:20;20.80;70.30
74617;DHT22;63123;50.906;4.198;2023-06-24T03:41:46;20.90;70.30
74617;DHT22;63123;50.906;4.198;2023-06-24T03:44:12;20.80;70.20
74617;DHT22;63123;50.906;4.198;2023-06-24T03:46:38;20.80;70.10
74617;DHT22;63123;50.906;4.198;2023-06-24T03:49:03;20.80;70.20
74617;DHT22;63123;50.906;4.198;2023-06-24T03:51:29;20.80;70.10
74617;DHT22;63123;50.906;4.198;2023-06-24T03:53:55;20.80;70.30
74617;DHT22;63123;50.906;4.198;2023-06-24T03:56:20;20.80;70.10
74617;DHT22;63123;50.906;4.198;2023-06-24T03:58:46;20.90;70.20
74617;DHT22;63123;50.906;4.198;2023-06-24T04:01:11;20.80;70.10
74617;DHT22;63123;50.906;4.198;2023-06-24T04:03:37;20.80;70.40
74617;DHT22;63123;50.906;4.198;2023-06-24T04:06:03;20.80;70.10
74617;DHT22;63123;50.906;4.198;2023-06-24T04:08:28;20.80;70.00
74617;DHT22;63123;50.906;4.198;2023-06-24T04:10:57;20.80;70.10
74617;DHT22;63123;50.906;4.198;2023-06-24T04:13:25;20.80;70.10
74617;DHT22;63123;50.906;4.198;2023-06-24T04:15:51;20.80;70.10
74617;DHT22;63123;50.906;4.198;2023-06-24T04:18:18;20.80;70.10
74617;DHT22;63123;50.906;4.198;2023-06-24T04:20:44;20.80;70.10
74617;DHT22;63123;50.906;4.198;2023-06-24T04:23:09;20.80;70.00
74617;DHT22;63123;50.906;4.198;2023-06-24T04:25:36;20.80;70.10
74617;DHT22;63123;50.906;4.198;2023-06-24T04:28:03;20.80;70.10
74617;DHT22;63123;50.906;4.198;2023-06-24T04:30:30;20.80;70.10
74617;DHT22;63123;50.906;4.198;2023-06-24T04:32:56;20.80;70.10
74617;DHT22;63123;50.906;4.198;2023-06-24T04:35:22;20.90;70.10
74617;DHT22;63123;50.906;4.198;2023-06-24T04:37:47;20.80;70.00
74617;DHT22;63123;50.906;4.198;2023-06-24T04:40:17;20.80;69.90
74617;DHT22;63123;50.906;4.198;2023-06-24T04:42:42;20.80;70.00
74617;DHT22;63123;50.906;4.198;2023-06-24T04:45:08;20.80;70.10
74617;DHT22;63123;50.906;4.198;2023-06-24T04:47:34;20.80;70.00
74617;DHT22;63123;50.906;4.198;2023-06-24T04:50:00;20.80;70.00
74617;DHT22;63123;50.906;4.198;2023-06-24T04:52:25;20.80;70.00
74617;DHT22;63123;50.906;4.198;2023-06-24T04:54:51;20.80;69.80
74617;DHT22;63123;50.906;4.198;2023-06-24T04:57:26;20.80;70.00
74617;DHT22;63123;50.906;4.198;2023-06-24T04:59:52;20.80;70.00
74617;DHT22;63123;50.906;4.198;2023-06-24T05:02:17;20.80;70.00
74617;DHT22;63123;50.906;4.198;2023-06-24T05:04:43;20.80;70.00
74617;DHT22;63123;50.906;4.198;2023-06-24T05:07:08;20.80;70.00
74617;DHT22;63123;50.906;4.198;2023-06-24T05:09:34;20.80;69.90
74617;DHT22;63123;50.906;4.198;2023-06-24T05:12:03;20.80;69.90
74617;DHT22;63123;50.906;4.198;2023-06-24T05:14:29;20.80;69.90
74617;DHT22;63123;50.906;4.198;2023-06-24T05:16:55;20.80;69.90
74617;DHT22;63123;50.906;4.198;2023-06-24T05:19:20;20.80;69.90
74617;DHT22;63123;50.906;4.198;2023-06-24T05:21:46;20.80;69.90
74617;DHT22;63123;50.906;4.198;2023-06-24T05:24:11;20.80;69.90
74617;DHT22;63123;50.906;4.198;2023-06-24T05:26:37;20.80;69.80
74617;DHT22;63123;50.906;4.198;2023-06-24T05:29:02;20.80;69.80
74617;DHT22;63123;50.906;4.198;2023-06-24T05:31:28;20.80;69.90
74617;DHT22;63123;50.906;4.198;2023-06-24T05:33:54;20.80;69.90
74617;DHT22;63123;50.906;4.198;2023-06-24T05:36:20;20.80;69.90
74617;DHT22;63123;50.906;4.198;2023-06-24T05:38:45;20.80;70.00
74617;DHT22;63123;50.906;4.198;2023-06-24T05:41:11;20.80;69.90
74617;DHT22;63123;50.906;4.198;2023-06-24T05:43:36;20.80;69.80
74617;DHT22;63123;50.906;4.198;2023-06-24T05:46:02;20.80;69.90
74617;DHT22;63123;50.906;4.198;2023-06-24T05:48:28;20.80;70.00
74617;DHT22;63123;50.906;4.198;2023-06-24T05:50:54;20.80;69.90
74617;DHT22;63123;50.906;4.198;2023-06-24T05:53:19;20.80;70.00
74617;DHT22;63123;50.906;4.198;2023-06-24T05:55:45;20.80;69.90
74617;DHT22;63123;50.906;4.198;2023-06-24T05:58:10;20.80;69.90
74617;DHT22;63123;50.906;4.198;2023-06-24T06:00:36;20.80;70.00
74617;DHT22;63123;50.906;4.198;2023-06-24T06:03:02;20.80;70.00
74617;DHT22;63123;50.906;4.198;2023-06-24T06:05:28;20.80;70.10
74617;DHT22;63123;50.906;4.198;2023-06-24T06:07:53;20.80;70.10
74617;DHT22;63123;50.906;4.198;2023-06-24T06:10:19;20.80;70.00
74617;DHT22;63123;50.906;4.198;2023-06-24T06:12:45;20.80;70.10
74617;DHT22;63123;50.906;4.198;2023-06-24T06:15:10;20.80;70.10
74617;DHT22;63123;50.906;4.198;2023-06-24T06:17:37;20.80;70.10
74617;DHT22;63123;50.906;4.198;2023-06-24T06:20:03;20.80;70.10
74617;DHT22;63123;50.906;4.198;2023-06-24T06:22:29;20.80;70.10
74617;DHT22;63123;50.906;4.198;2023-06-24T06:24:54;20.80;70.20
74617;DHT22;63123;50.906;4.198;2023-06-24T06:27:20;20.80;70.20
74617;DHT22;63123;50.906;4.198;2023-06-24T06:29:46;20.80;70.10
74617;DHT22;63123;50.906;4.198;2023-06-24T06:32:11;20.80;70.20
74617;DHT22;63123;50.906;4.198;2023-06-24T06:34:37;20.80;70.20
74617;DHT22;63123;50.906;4.198;2023-06-24T06:37:02;20.80;70.30
74617;DHT22;63123;50.906;4.198;2023-06-24T06:39:28;20.80;70.20
74617;DHT22;63123;50.906;4.198;2023-06-24T06:41:54;20.80;70.20
74617;DHT22;63123;50.906;4.198;2023-06-24T06:44:20;20.80;70.10
74617;DHT22;63123;50.906;4.198;2023-06-24T06:46:46;20.80;70.10
74617;DHT22;63123;50.906;4.198;2023-06-24T06:49:11;20.80;70.20
74617;DHT22;63123;50.906;4.198;2023-06-24T06:51:37;20.80;70.20
74617;DHT22;63123;50.906;4.198;2023-06-24T06:54:02;20.80;70.20
74617;DHT22;63123;50.906;4.198;2023-06-24T06:56:28;20.80;70.20
74617;DHT22;63123;50.906;4.198;2023-06-24T06:58:54;20.80;70.20
74617;DHT22;63123;50.906;4.198;2023-06-24T07:01:19;20.80;70.10
74617;DHT22;63123;50.906;4.198;2023-06-24T07:03:45;20.80;70.10
74617;DHT22;63123;50.906;4.198;2023-06-24T07:06:11;20.80;70.10
74617;DHT22;63123;50.906;4.198;2023-06-24T07:08:36;20.80;70.10
74617;DHT22;63123;50.906;4.198;2023-06-24T07:11:02;20.80;70.10
74617;DHT22;63123;50.906;4.198;2023-06-24T07:13:28;20.80;70.20
74617;DHT22;63123;50.906;4.198;2023-06-24T07:15:54;20.80;70.10
74617;DHT22;63123;50.906;4.198;2023-06-24T07:18:19;20.80;70.20
74617;DHT22;63123;50.906;4.198;2023-06-24T07:20:45;20.80;70.10
74617;DHT22;63123;50.906;4.198;2023-06-24T07:23:11;20.80;70.10
74617;DHT22;63123;50.906;4.198;2023-06-24T07:25:36;20.80;70.10
74617;DHT22;63123;50.906;4.198;2023-06-24T07:28:02;20.80;70.20
74617;DHT22;63123;50.906;4.198;2023-06-24T07:30:28;20.80;70.10
74617;DHT22;63123;50.906;4.198;2023-06-24T07:32:54;20.80;70.10
74617;DHT22;63123;50.906;4.198;2023-06-24T07:35:19;20.80;70.00
74617;DHT22;63123;50.906;4.198;2023-06-24T07:37:45;20.90;70.10
74617;DHT22;63123;50.906;4.198;2023-06-24T07:40:11;20.80;69.90
74617;DHT22;63123;50.906;4.198;2023-06-24T07:42:36;20.80;69.90
74617;DHT22;63123;50.906;4.198;2023-06-24T07:45:02;20.80;69.90
74617;DHT22;63123;50.906;4.198;2023-06-24T07:47:28;20.80;69.80
74617;DHT22;63123;50.906;4.198;2023-06-24T07:49:54;20.80;69.90
74617;DHT22;63123;50.906;4.198;2023-06-24T07:52:19;20.80;69.80
74617;DHT22;63123;50.906;4.198;2023-06-24T07:54:45;20.80;69.80
74617;DHT22;63123;50.906;4.198;2023-06-24T07:57:11;20.80;69.70
74617;DHT22;63123;50.906;4.198;2023-06-24T07:59:37;20.80;69.80
74617;DHT22;63123;50.906;4.198;2023-06-24T08:02:03;20.80;69.70
74617;DHT22;63123;50.906;4.198;2023-06-24T08:04:28;20.80;69.70
74617;DHT22;63123;50.906;4.198;2023-06-24T08:06:54;20.80;69.60
74617;DHT22;63123;50.906;4.198;2023-06-24T08:09:20;20.90;69.80
74617;DHT22;63123;50.906;4.198;2023-06-24T08:11:45;20.90;69.80
74617;DHT22;63123;50.906;4.198;2023-06-24T08:14:11;20.80;69.60
74617;DHT22;63123;50.906;4.198;2023-06-24T08:16:37;20.90;69.70
74617;DHT22;63123;50.906;4.198;2023-06-24T08:19:03;20.80;69.70
74617;DHT22;63123;50.906;4.198;2023-06-24T08:21:28;20.90;69.80
74617;DHT22;63123;50.906;4.198;2023-06-24T08:23:55;20.90;69.70
74617;DHT22;63123;50.906;4.198;2023-06-24T08:26:20;20.90;69.80
74617;DHT22;63123;50.906;4.198;2023-06-24T08:28:47;20.80;69.70
74617;DHT22;63123;50.906;4.198;2023-06-24T08:31:13;20.80;69.60
74617;DHT22;63123;50.906;4.198;2023-06-24T08:33:41;20.90;69.60
74617;DHT22;63123;50.906;4.198;2023-06-24T08:36:07;20.90;69.60
74617;DHT22;63123;50.906;4.198;2023-06-24T08:38:33;20.90;69.70
74617;DHT22;63123;50.906;4.198;2023-06-24T08:40:58;20.90;69.70
74617;DHT22;63123;50.906;4.198;2023-06-24T08:43:24;20.90;69.60
74617;DHT22;63123;50.906;4.198;2023-06-24T08:45:50;20.90;69.70
74617;DHT22;63123;50.906;4.198;2023-06-24T08:48:16;20.90;69.60
74617;DHT22;63123;50.906;4.198;2023-06-24T08:50:45;20.90;69.50
74617;DHT22;63123;50.906;4.198;2023-06-24T08:53:12;20.90;69.50
74617;DHT22;63123;50.906;4.198;2023-06-24T08:55:45;20.90;69.50
74617;DHT22;63123;50.906;4.198;2023-06-24T08:58:11;20.90;69.40
74617;DHT22;63123;50.906;4.198;2023-06-24T09:00:37;20.90;69.20
74617;DHT22;63123;50.906;4.198;2023-06-24T09:03:02;20.90;69.20
74617;DHT22;63123;50.906;4.198;2023-06-24T09:05:29;20.90;69.30
74617;DHT22;63123;50.906;4.198;2023-06-24T09:07:56;20.90;69.10
74617;DHT22;63123;50.906;4.198;2023-06-24T09:10:37;20.90;69.00
74617;DHT22;63123;50.906;4.198;2023-06-24T09:13:05;20.80;69.20
74617;DHT22;63123;50.906;4.198;2023-06-24T09:15:38;20.90;69.20
74617;DHT22;63123;50.906;4.198;2023-06-24T09:18:04;20.90;69.30
74617;DHT22;63123;50.906;4.198;2023-06-24T09:20:31;20.90;69.10
74617;DHT22;63123;50.906;4.198;2023-06-24T09:22:59;20.90;69.00
74617;DHT22;63123;50.906;4.198;2023-06-24T09:25:25;20.90;69.10
74617;DHT22;63123;50.906;4.198;2023-06-24T09:27:50;20.90;69.10
74617;DHT22;63123;50.906;4.198;2023-06-24T09:32:51;20.90;69.20
74617;DHT22;63123;50.906;4.198;2023-06-24T09:35:21;20.90;69.10
74617;DHT22;63123;50.906;4.198;2023-06-24T09:37:57;20.90;69.00
74617;DHT22;63123;50.906;4.198;2023-06-24T09:40:26;20.90;69.20
74617;DHT22;63123;50.906;4.198;2023-06-24T09:42:56;20.90;69.00
74617;DHT22;63123;50.906;4.198;2023-06-24T09:45:27;20.90;68.80
74617;DHT22;63123;50.906;4.198;2023-06-24T09:47:53;20.90;68.70
74617;DHT22;63123;50.906;4.198;2023-06-24T09:50:20;20.90;68.60
74617;DHT22;63123;50.906;4.198;2023-06-24T09:52:46;20.90;68.60
74617;DHT22;63123;50.906;4.198;2023-06-24T09:55:16;20.90;68.60
74617;DHT22;63123;50.906;4.198;2023-06-24T09:57:46;20.90;68.60
74617;DHT22;63123;50.906;4.198;2023-06-24T10:00:17;20.90;68.70
74617;DHT22;63123;50.906;4.198;2023-06-24T10:02:44;20.90;68.80
74617;DHT22;63123;50.906;4.198;2023-06-24T10:05:11;20.90;68.60
74617;DHT22;63123;50.906;4.198;2023-06-24T10:07:39;20.90;68.60
74617;DHT22;63123;50.906;4.198;2023-06-24T10:10:05;20.90;68.70
74617;DHT22;63123;50.906;4.198;2023-06-24T10:12:31;20.90;68.60
74617;DHT22;63123;50.906;4.198;2023-06-24T10:14:58;20.90;68.20
74617;DHT22;63123;50.906;4.198;2023-06-24T10:17:24;20.90;68.20
74617;DHT22;63123;50.906;4.198;2023-06-24T10:19:52;20.90;68.30
74617;DHT22;63123;50.906;4.198;2023-06-24T10:22:22;20.90;68.00
74617;DHT22;63123;50.906;4.198;2023-06-24T10:24:50;20.90;68.20
74617;DHT22;63123;50.906;4.198;2023-06-24T10:29:47;20.90;68.10
74617;DHT22;63123;50.906;4.198;2023-06-24T10:32:13;20.90;68.10
74617;DHT22;63123;50.906;4.198;2023-06-24T10:34:43;20.90;68.10
74617;DHT22;63123;50.906;4.198;2023-06-24T10:37:19;20.90;68.20
74617;DHT22;63123;50.906;4.198;2023-06-24T10:40:03;20.90;68.30
74617;DHT22;63123;50.906;4.198;2023-06-24T10:42:39;20.90;68.30
74617;DHT22;63123;50.906;4.198;2023-06-24T10:47:36;20.90;68.20
74617;DHT22;63123;50.906;4.198;2023-06-24T10:50:04;20.90;68.20
74617;DHT22;63123;50.906;4.198;2023-06-24T10:52:30;20.90;68.10
74617;DHT22;63123;50.906;4.198;2023-06-24T10:54:57;21.00;68.20
74617;DHT22;63123;50.906;4.198;2023-06-24T10:57:27;20.90;68.10
74617;DHT22;63123;50.906;4.198;2023-06-24T10:59:54;20.90;68.00
74617;DHT22;63123;50.906;4.198;2023-06-24T11:02:25;20.90;67.90
74617;DHT22;63123;50.906;4.198;2023-06-24T11:04:55;20.90;67.90
74617;DHT22;63123;50.906;4.198;2023-06-24T11:07:23;20.90;68.00
74617;DHT22;63123;50.906;4.198;2023-06-24T11:09:51;20.90;67.90
74617;DHT22;63123;50.906;4.198;2023-06-24T11:12:17;20.90;68.00
74617;DHT22;63123;50.906;4.198;2023-06-24T11:14:42;20.90;68.50
74617;DHT22;63123;50.906;4.198;2023-06-24T11:17:09;20.90;67.80
74617;DHT22;63123;50.906;4.198;2023-06-24T11:19:34;20.90;67.90
74617;DHT22;63123;50.906;4.198;2023-06-24T11:22:05;20.90;67.80
74617;DHT22;63123;50.906;4.198;2023-06-24T11:24:30;20.90;67.70
74617;DHT22;63123;50.906;4.198;2023-06-24T11:26:56;20.90;67.30
74617;DHT22;63123;50.906;4.198;2023-06-24T11:29:22;20.90;67.10
74617;DHT22;63123;50.906;4.198;2023-06-24T11:31:49;20.90;67.30
74617;DHT22;63123;50.906;4.198;2023-06-24T11:34:15;20.90;67.50
74617;DHT22;63123;50.906;4.198;2023-06-24T11:36:40;20.90;67.30
74617;DHT22;63123;50.906;4.198;2023-06-24T11:39:06;20.90;67.60
74617;DHT22;63123;50.906;4.198;2023-06-24T11:41:32;20.90;67.30
74617;DHT22;63123;50.906;4.198;2023-06-24T11:43:58;20.90;66.90
74617;DHT22;63123;50.906;4.198;2023-06-24T11:46:30;20.90;66.90
74617;DHT22;63123;50.906;4.198;2023-06-24T11:49:07;20.90;67.10
74617;DHT22;63123;50.906;4.198;2023-06-24T11:51:34;20.90;67.30
74617;DHT22;63123;50.906;4.198;2023-06-24T11:54:05;20.90;67.30
74617;DHT22;63123;50.906;4.198;2023-06-24T11:56:38;20.90;67.40
74617;DHT22;63123;50.906;4.198;2023-06-24T11:59:04;20.90;67.30
74617;DHT22;63123;50.906;4.198;2023-06-24T12:01:34;20.90;67.10
74617;DHT22;63123;50.906;4.198;2023-06-24T12:04:12;20.90;67.10
74617;DHT22;63123;50.906;4.198;2023-06-24T12:06:39;20.90;67.10
74617;DHT22;63123;50.906;4.198;2023-06-24T12:09:05;20.90;67.20
74617;DHT22;63123;50.906;4.198;2023-06-24T12:11:31;20.90;67.20
74617;DHT22;63123;50.906;4.198;2023-06-24T12:13:56;20.90;67.20
74617;DHT22;63123;50.906;4.198;2023-06-24T12:16:22;20.90;67.20
74617;DHT22;63123;50.906;4.198;2023-06-24T12:18:48;20.90;66.90
74617;DHT22;63123;50.906;4.198;2023-06-24T12:21:14;20.90;67.20
74617;DHT22;63123;50.906;4.198;2023-06-24T12:23:39;20.90;66.90
74617;DHT22;63123;50.906;4.198;2023-06-24T12:26:05;20.90;67.10
74617;DHT22;63123;50.906;4.198;2023-06-24T12:28:30;20.90;66.90
74617;DHT22;63123;50.906;4.198;2023-06-24T12:30:56;20.90;67.10
74617;DHT22;63123;50.906;4.198;2023-06-24T12:33:22;20.90;67.10
74617;DHT22;63123;50.906;4.198;2023-06-24T12:35:48;20.90;67.20
74617;DHT22;63123;50.906;4.198;2023-06-24T12:38:14;20.90;67.10
74617;DHT22;63123;50.906;4.198;2023-06-24T12:40:41;21.00;67.30
74617;DHT22;63123;50.906;4.198;2023-06-24T12:43:07;20.90;67.10
74617;DHT22;63123;50.906;4.198;2023-06-24T12:45:32;20.90;67.20
74617;DHT22;63123;50.906;4.198;2023-06-24T12:47:58;20.90;67.20
74617;DHT22;63123;50.906;4.198;2023-06-24T12:50:25;20.90;67.10
74617;DHT22;63123;50.906;4.198;2023-06-24T12:52:51;20.90;67.10
74617;DHT22;63123;50.906;4.198;2023-06-24T12:55:16;20.90;67.10
74617;DHT22;63123;50.906;4.198;2023-06-24T12:57:43;21.00;67.10
74617;DHT22;63123;50.906;4.198;2023-06-24T13:00:09;20.90;67.00
74617;DHT22;63123;50.906;4.198;2023-06-24T13:02:37;20.90;67.00
74617;DHT22;63123;50.906;4.198;2023-06-24T13:05:04;20.90;66.70
74617;DHT22;63123;50.906;4.198;2023-06-24T13:07:30;20.90;66.70
74617;DHT22;63123;50.906;4.198;2023-06-24T13:09:55;20.90;66.50
74617;DHT22;63123;50.906;4.198;2023-06-24T13:12:21;20.90;66.60
74617;DHT22;63123;50.906;4.198;2023-06-24T13:14:47;20.90;66.70
74617;DHT22;63123;50.906;4.198;2023-06-24T13:17:13;20.90;66.70
74617;DHT22;63123;50.906;4.198;2023-06-24T13:19:39;20.90;66.60
74617;DHT22;63123;50.906;4.198;2023-06-24T13:22:04;20.90;66.50
74617;DHT22;63123;50.906;4.198;2023-06-24T13:24:30;21.00;66.80
74617;DHT22;63123;50.906;4.198;2023-06-24T13:26:55;20.90;66.90
74617;DHT22;63123;50.906;4.198;2023-06-24T13:29:21;21.00;67.00
74617;DHT22;63123;50.906;4.198;2023-06-24T13:31:47;21.00;66.80
74617;DHT22;63123;50.906;4.198;2023-06-24T13:34:12;21.00;67.00
74617;DHT22;63123;50.906;4.198;2023-06-24T13:36:38;21.00;66.90
74617;DHT22;63123;50.906;4.198;2023-06-24T13:39:06;20.90;66.80
74617;DHT22;63123;50.906;4.198;2023-06-24T13:41:32;21.00;66.90
74617;DHT22;63123;50.906;4.198;2023-06-24T13:43:59;21.00;66.80
74617;DHT22;63123;50.906;4.198;2023-06-24T13:46:26;21.00;66.90
74617;DHT22;63123;50.906;4.198;2023-06-24T13:48:51;21.00;66.80
74617;DHT22;63123;50.906;4.198;2023-06-24T13:51:20;21.00;66.70
74617;DHT22;63123;50.906;4.198;2023-06-24T13:53:48;21.00;66.80
74617;DHT22;63123;50.906;4.198;2023-06-24T13:56:14;21.00;66.50
74617;DHT22;63123;50.906;4.198;2023-06-24T13:58:40;21.00;66.70
74617;DHT22;63123;50.906;4.198;2023-06-24T14:01:05;21.00;66.60
74617;DHT22;63123;50.906;4.198;2023-06-24T14:03:31;21.00;66.40
74617;DHT22;63123;50.906;4.198;2023-06-24T14:05:56;21.00;66.70
74617;DHT22;63123;50.906;4.198;2023-06-24T14:08:23;21.00;66.60
74617;DHT22;63123;50.906;4.198;2023-06-24T14:10:48;21.00;66.60
74617;DHT22;63123;50.906;4.198;2023-06-24T14:13:14;21.00;66.60
74617;DHT22;63123;50.906;4.198;2023-06-24T14:15:41;21.00;66.60
74617;DHT22;63123;50.906;4.198;2023-06-24T14:18:06;21.00;66.40
74617;DHT22;63123;50.906;4.198;2023-06-24T14:20:32;21.00;66.40
74617;DHT22;63123;50.906;4.198;2023-06-24T14:22:57;21.00;66.40
74617;DHT22;63123;50.906;4.198;2023-06-24T14:25:23;21.00;66.20
74617;DHT22;63123;50.906;4.198;2023-06-24T14:27:49;21.00;66.40
74617;DHT22;63123;50.906;4.198;2023-06-24T14:30:15;21.00;66.40
74617;DHT22;63123;50.906;4.198;2023-06-24T14:32:41;21.00;66.20
74617;DHT22;63123;50.906;4.198;2023-06-24T14:35:07;21.00;66.40
74617;DHT22;63123;50.906;4.198;2023-06-24T14:37:33;21.00;66.20
74617;DHT22;63123;50.906;4.198;2023-06-24T14:39:58;21.00;66.10
74617;DHT22;63123;50.906;4.198;2023-06-24T14:42:24;21.00;66.30
74617;DHT22;63123;50.906;4.198;2023-06-24T14:44:50;21.00;66.60
74617;DHT22;63123;50.906;4.198;2023-06-24T14:47:15;21.00;65.90
74617;DHT22;63123;50.906;4.198;2023-06-24T14:49:41;21.00;66.10
74617;DHT22;63123;50.906;4.198;2023-06-24T14:52:06;21.00;65.80
74617;DHT22;63123;50.906;4.198;2023-06-24T14:54:32;21.00;66.00
74617;DHT22;63123;50.906;4.198;2023-06-24T14:56:57;21.00;66.40
74617;DHT22;63123;50.906;4.198;2023-06-24T14:59:23;21.00;65.80
74617;DHT22;63123;50.906;4.198;2023-06-24T15:01:49;21.00;66.00
74617;DHT22;63123;50.906;4.198;2023-06-24T15:04:14;21.00;65.90
74617;DHT22;63123;50.906;4.198;2023-06-24T15:06:40;21.00;65.80
74617;DHT22;63123;50.906;4.198;2023-06-24T15:09:05;21.00;65.50
74617;DHT22;63123;50.906;4.198;2023-06-24T15:11:31;21.00;66.10
74617;DHT22;63123;50.906;4.198;2023-06-24T15:13:56;21.00;65.60
74617;DHT22;63123;50.906;4.198;2023-06-24T15:16:22;21.00;65.30
74617;DHT22;63123;50.906;4.198;2023-06-24T15:18:48;21.00;65.30
74617;DHT22;63123;50.906;4.198;2023-06-24T15:21:15;21.00;65.80
74617;DHT22;63123;50.906;4.198;2023-06-24T15:23:41;21.10;65.30
74617;DHT22;63123;50.906;4.198;2023-06-24T15:26:07;21.00;65.40
74617;DHT22;63123;50.906;4.198;2023-06-24T15:28:33;21.00;65.40
74617;DHT22;63123;50.906;4.198;2023-06-24T15:31:02;21.00;65.40
74617;DHT22;63123;50.906;4.198;2023-06-24T15:33:28;21.00;65.20
74617;DHT22;63123;50.906;4.198;2023-06-24T15:35:53;21.00;65.10
74617;DHT22;63123;50.906;4.198;2023-06-24T15:38:20;21.00;64.80
74617;DHT22;63123;50.906;4.198;2023-06-24T15:40:46;21.00;65.00
74617;DHT22;63123;50.906;4.198;2023-06-24T15:43:11;21.10;65.10
74617;DHT22;63123;50.906;4.198;2023-06-24T15:45:38;21.00;65.20
74617;DHT22;63123;50.906;4.198;2023-06-24T15:48:04;21.00;64.80